Time;durP1;ratioP1;P1;durP2;ratioP2;P2;SDS_P1;SDS_P2;PMS_P1;PMS_P2;Temp;Humidity;BMP_temperature;BMP_pressure;BME280_temperature;BME280_humidity;BME280_pressure;Samples;Min_cycle;Max_cycle;Signal;HPM_P1;HPM_P2
2022/08/31 00:04:01;;;;;;;13.32;6.60;;;17.20;99.90;;;;;;21018784;22;20063;-77
2022/08/31 00:14:06;;;;;;;12.60;7.18;;;17.00;99.90;;;;;;21004461;28;20048;-77
2022/08/31 00:24:07;;;;;;;10.68;7.18;;;17.00;99.90;;;;;;21004841;28;20051;-78
2022/08/31 00:34:08;;;;;;;16.53;9.03;;;17.10;99.90;;;;;;21003075;28;20040;-77
2022/08/31 00:44:10;;;;;;;15.67;10.17;;;17.00;99.90;;;;;;20985111;28;20127;-78
2022/08/31 00:54:13;;;;;;;14.88;9.63;;;17.10;99.90;;;;;;20984733;28;20032;-78
2022/08/31 01:04:14;;;;;;;11.48;7.47;;;17.10;99.90;;;;;;21002293;28;20047;-78
2022/08/31 01:14:15;;;;;;;10.77;6.72;;;17.10;99.90;;;;;;21001577;28;20045;-78
2022/08/31 01:24:17;;;;;;;10.37;6.30;;;17.10;99.90;;;;;;21001098;28;20041;-77
2022/08/31 01:34:18;;;;;;;12.57;7.20;;;17.10;99.90;;;;;;21001706;28;20083;-77
2022/08/31 01:44:21;;;;;;;10.57;7.13;;;17.20;99.90;;;;;;20982553;28;20043;-78
2022/08/31 01:54:26;;;;;;;16.30;8.00;;;17.30;99.90;;;;;;20966856;28;20106;-78
2022/08/31 02:04:28;;;;;;;15.20;7.82;;;17.30;99.90;;;;;;21002889;28;20094;-78
2022/08/31 02:14:30;;;;;;;15.18;8.85;;;17.30;99.90;;;;;;20997870;28;20043;-78
2022/08/31 02:24:30;;;;;;;14.33;8.07;;;17.40;99.90;;;;;;21013973;28;20534;-78
2022/08/31 02:34:31;;;;;;;13.40;9.17;;;17.30;99.90;;;;;;20994577;28;20530;-78
2022/08/31 02:44:32;;;;;;;15.90;10.30;;;17.20;99.90;;;;;;20994254;28;20447;-77
2022/08/31 02:54:34;;;;;;;17.67;10.30;;;17.20;99.90;;;;;;20993305;28;20040;-77
2022/08/31 03:04:34;;;;;;;16.77;10.10;;;17.20;99.90;;;;;;20993926;28;20044;-78
2022/08/31 03:14:35;;;;;;;17.07;10.47;;;17.20;99.90;;;;;;21010226;28;20059;-78
2022/08/31 03:24:36;;;;;;;20.00;9.93;;;17.10;99.90;;;;;;20990661;28;20036;-77
2022/08/31 03:34:38;;;;;;;15.95;9.57;;;17.10;99.90;;;;;;20984941;28;20055;-77
2022/08/31 03:44:39;;;;;;;15.77;9.60;;;17.10;99.90;;;;;;20986846;28;20075;-77
2022/08/31 03:54:44;;;;;;;21.75;9.95;;;17.10;99.90;;;;;;20987799;28;20043;-78
2022/08/31 04:04:53;;;;;;;17.90;10.38;;;17.00;99.90;;;;;;20985929;28;20086;-78
2022/08/31 04:15:19;;;;;;;17.67;11.20;;;17.10;99.90;;;;;;20991836;28;20037;-79
2022/08/31 04:25:41;;;;;;;22.05;10.85;;;17.00;99.90;;;;;;21010861;28;20119;-78
2022/08/31 04:35:42;;;;;;;22.23;13.15;;;17.00;99.90;;;;;;20990239;28;20093;-79
2022/08/31 04:45:43;;;;;;;;;;;17.00;99.90;;;;;;21030232;28;20068;-79
2022/08/31 04:55:44;;;;;;;20.63;12.32;;;16.90;99.90;;;;;;21004993;28;20467;-79
2022/08/31 05:05:49;;;;;;;24.98;12.98;;;17.00;99.90;;;;;;21044424;28;20043;-79
2022/08/31 05:15:50;;;;;;;22.85;12.38;;;17.00;99.90;;;;;;20996431;28;20132;-79
2022/08/31 05:25:54;;;;;;;24.23;12.68;;;17.00;99.90;;;;;;20988839;28;20055;-79
2022/08/31 05:35:55;;;;;;;17.93;11.03;;;17.00;99.90;;;;;;20993228;28;20036;-79
2022/08/31 05:45:56;;;;;;;18.30;11.60;;;17.10;99.90;;;;;;21022835;28;20081;-78
2022/08/31 05:56:05;;;;;;;17.10;10.68;;;17.10;99.90;;;;;;21018780;28;20054;-79
2022/08/31 06:06:08;;;;;;;16.10;9.75;;;17.10;99.90;;;;;;21050877;22;20554;-78
2022/08/31 06:16:09;;;;;;;17.58;10.10;;;17.20;99.90;;;;;;20979132;28;20068;-79
2022/08/31 06:26:14;;;;;;;14.57;10.17;;;17.30;99.90;;;;;;20915592;28;20033;-79
2022/08/31 06:36:18;;;;;;;7.70;5.28;;;17.30;99.90;;;;;;20912911;28;20044;-79
2022/08/31 06:46:31;;;;;;;7.38;4.95;;;17.30;99.90;;;;;;20911914;28;20045;-78
2022/08/31 06:56:41;;;;;;;;;;;17.50;99.90;;;;;;20924939;28;20094;-79
2022/08/31 07:07:02;;;;;;;7.72;4.32;;;17.40;99.90;;;;;;20923213;28;19916;-79
2022/08/31 07:17:03;;;;;;;7.32;4.35;;;17.50;99.90;;;;;;20910754;28;20068;-79
2022/08/31 07:27:08;;;;;;;13.25;4.93;;;17.70;99.90;;;;;;20907683;28;20029;-78
2022/08/31 07:47:59;;;;;;;10.02;4.40;;;17.90;99.90;;;;;;20911241;28;20037;-78
2022/08/31 07:58:12;;;;;;;4.45;3.35;;;17.80;99.90;;;;;;20910366;28;20067;-79
2022/08/31 08:08:15;;;;;;;4.40;3.42;;;18.00;99.90;;;;;;20906945;28;20528;-78
2022/08/31 08:18:36;;;;;;;5.00;2.85;;;18.20;99.90;;;;;;20923916;28;20107;-78
2022/08/31 08:28:37;;;;;;;4.60;2.87;;;18.60;99.90;;;;;;20925800;28;20380;-79
2022/08/31 08:38:42;;;;;;;7.17;2.40;;;18.80;99.90;;;;;;20889896;28;20128;-79
2022/08/31 08:48:46;;;;;;;4.68;2.83;;;18.90;99.90;;;;;;20905428;28;20445;-79
2022/08/31 08:58:47;;;;;;;4.68;2.83;;;18.90;99.90;;;;;;20905898;28;20037;-79
2022/08/31 09:09:20;;;;;;;4.15;2.80;;;18.80;99.90;;;;;;20907084;28;20091;-79
2022/08/31 09:19:56;;;;;;;3.83;2.70;;;18.30;99.90;;;;;;20921367;28;20036;-79
2022/08/31 09:30:00;;;;;;;4.40;3.55;;;18.20;99.90;;;;;;20904230;28;20037;-78
2022/08/31 09:40:35;;;;;;;5.45;3.72;;;18.00;99.90;;;;;;20903335;28;20072;-79
2022/08/31 09:50:44;;;;;;;3.95;3.25;;;18.10;99.90;;;;;;20887780;28;20441;-78
2022/08/31 10:00:49;;;;;;;7.75;3.85;;;18.60;99.90;;;;;;20902182;28;20044;-79
2022/08/31 10:10:50;;;;;;;6.32;3.20;;;19.10;99.90;;;;;;20901732;28;20124;-78
2022/08/31 10:21:06;;;;;;;4.68;3.25;;;19.10;99.90;;;;;;20896695;28;20116;-78
2022/08/31 10:31:22;;;;;;;4.70;2.80;;;18.80;99.90;;;;;;20928316;28;20530;-79
2022/08/31 10:41:32;;;;;;;5.60;3.28;;;19.10;99.90;;;;;;20936945;28;20565;-78
2022/08/31 10:52:00;;;;;;;4.72;2.40;;;19.40;99.90;;;;;;20930917;28;20124;-78
2022/08/31 11:02:39;;;;;;;5.40;2.30;;;19.60;99.90;;;;;;20930157;28;20044;-79
2022/08/31 11:12:44;;;;;;;3.75;2.50;;;20.60;99.90;;;;;;20915673;28;20036;-79
2022/08/31 11:23:04;;;;;;;4.35;1.90;;;22.20;99.90;;;;;;20934136;28;20051;-79
2022/08/31 11:33:10;;;;;;;3.08;1.88;;;23.30;99.90;;;;;;20912665;28;20043;-79
2022/08/31 11:43:30;;;;;;;4.00;2.15;;;24.30;99.90;;;;;;20910956;28;20402;-80
2022/08/31 11:53:42;;;;;;;6.32;2.20;;;24.20;99.90;;;;;;20927170;28;20099;-79
2022/08/31 12:04:02;;;;;;;2.65;1.83;;;24.40;99.90;;;;;;20933005;28;20102;-78
2022/08/31 12:14:32;;;;;;;2.58;1.88;;;24.90;99.90;;;;;;21118634;22;20048;-76
2022/08/31 12:24:51;;;;;;;5.05;1.77;;;25.00;99.90;;;;;;20963531;28;20044;-75
2022/08/31 12:34:55;;;;;;;3.03;2.03;;;25.50;99.90;;;;;;21030800;28;20045;-75
2022/08/31 12:44:55;;;;;;;3.88;2.20;;;24.90;99.90;;;;;;21012117;28;20087;-75
2022/08/31 12:55:05;;;;;;;;;;;24.60;99.90;;;;;;21010685;28;20040;-74
2022/08/31 13:05:37;;;;;;;3.42;2.08;;;23.90;99.90;;;;;;21006783;28;19915;-74
2022/08/31 13:15:42;;;;;;;2.83;2.07;;;23.40;99.90;;;;;;21006898;28;20052;-74
2022/08/31 13:25:43;;;;;;;4.95;2.33;;;23.30;99.90;;;;;;21017219;28;20123;-74
2022/08/31 13:35:48;;;;;;;3.22;2.20;;;23.50;99.90;;;;;;21007058;28;20367;-74
2022/08/31 13:45:56;;;;;;;4.25;2.63;;;22.50;99.90;;;;;;20990057;28;20032;-74
2022/08/31 13:55:57;;;;;;;5.38;3.67;;;21.50;99.90;;;;;;21004233;28;20040;-73
2022/08/31 14:06:24;;;;;;;5.23;2.30;;;20.80;99.90;;;;;;21000147;28;20078;-73
2022/08/31 14:16:31;;;;;;;5.18;2.83;;;21.60;99.90;;;;;;20998451;28;20536;-74
2022/08/31 14:26:40;;;;;;;3.88;2.53;;;22.30;99.90;;;;;;20988691;28;20041;-74
2022/08/31 14:36:49;;;;;;;5.43;2.67;;;22.30;99.90;;;;;;21004162;28;20071;-76
2022/08/31 14:46:50;;;;;;;5.82;2.50;;;22.40;99.90;;;;;;20977019;28;20094;-75
2022/08/31 14:56:54;;;;;;;4.38;2.50;;;22.50;99.90;;;;;;21004053;28;20131;-76
2022/08/31 15:07:04;;;;;;;4.05;2.60;;;22.40;99.90;;;;;;20995941;28;20463;-76
2022/08/31 15:17:10;;;;;;;3.13;2.50;;;22.10;99.90;;;;;;20973900;28;20039;-76
2022/08/31 15:27:13;;;;;;;6.47;2.75;;;21.90;99.90;;;;;;20935819;28;20037;-76
2022/08/31 15:37:15;;;;;;;3.72;2.28;;;21.60;99.90;;;;;;20925406;28;20116;-75
2022/08/31 15:57:35;;;;;;;4.22;2.63;;;21.90;99.90;;;;;;20979846;28;20349;-76
2022/08/31 16:07:36;;;;;;;;;;;22.10;99.90;;;;;;20980315;28;20082;-76
2022/08/31 16:17:39;;;;;;;5.85;2.90;;;22.30;99.90;;;;;;20982454;28;19909;-76
2022/08/31 16:27:42;;;;;;;4.45;2.55;;;21.70;99.90;;;;;;20916224;28;20047;-74
2022/08/31 16:37:42;;;;;;;5.38;3.20;;;21.70;99.90;;;;;;20913533;28;20059;-74
2022/08/31 16:47:43;;;;;;;4.43;2.93;;;21.60;99.90;;;;;;20911681;28;20064;-74
2022/08/31 16:57:44;;;;;;;4.40;3.00;;;21.50;99.90;;;;;;20894643;28;20044;-74
2022/08/31 17:07:45;;;;;;;5.30;2.80;;;21.80;99.90;;;;;;20909545;28;20044;-74
2022/08/31 17:17:46;;;;;;;4.70;2.55;;;21.70;99.90;;;;;;20893594;28;20037;-74
2022/08/31 17:27:47;;;;;;;8.07;3.05;;;21.20;99.90;;;;;;20908905;28;20673;-74
2022/08/31 17:37:48;;;;;;;5.17;3.57;;;20.60;99.90;;;;;;20909944;28;20037;-74
2022/08/31 17:47:50;;;;;;;5.25;3.08;;;20.40;99.90;;;;;;20977879;28;20040;-73
2022/08/31 17:57:50;;;;;;;;;;;20.10;99.90;;;;;;20925010;28;20036;-73
2022/08/31 18:07:51;;;;;;;5.93;3.63;;;19.80;99.90;;;;;;20909325;28;19912;-74
2022/08/31 18:17:54;;;;;;;5.95;3.30;;;19.60;99.90;;;;;;20912356;28;20084;-74
2022/08/31 18:27:55;;;;;;;5.82;4.10;;;19.40;99.90;;;;;;20910424;28;20377;-74
2022/08/31 18:37:57;;;;;;;6.53;4.17;;;19.40;99.90;;;;;;20910675;28;20041;-74
2022/08/31 18:47:58;;;;;;;9.15;3.67;;;19.30;99.90;;;;;;20940572;28;20048;-75
2022/08/31 18:57:59;;;;;;;;;;;19.40;99.90;;;;;;20922868;28;20369;-75
2022/08/31 19:08:00;;;;;;;6.87;4.37;;;19.30;99.90;;;;;;20921391;28;19916;-75
2022/08/31 19:18:01;;;;;;;7.73;4.63;;;19.30;99.90;;;;;;20902156;28;20055;-74
2022/08/31 19:28:06;;;;;;;6.47;4.20;;;18.90;99.90;;;;;;20921394;28;20563;-74
2022/08/31 19:38:07;;;;;;;6.82;4.68;;;18.70;99.90;;;;;;20924517;28;20047;-74
2022/08/31 19:48:08;;;;;;;9.17;4.73;;;18.50;99.90;;;;;;20933918;28;20033;-79
2022/08/31 19:58:09;;;;;;;11.57;5.03;;;18.30;99.90;;;;;;20937187;28;20037;-80
2022/08/31 20:08:11;;;;;;;8.60;4.97;;;18.20;99.90;;;;;;20931685;28;20037;-79
2022/08/31 20:18:11;;;;;;;8.13;4.72;;;18.30;99.90;;;;;;20930936;28;20271;-78
2022/08/31 20:28:13;;;;;;;7.57;4.57;;;18.10;99.90;;;;;;20926888;28;20044;-77
2022/08/31 20:38:16;;;;;;;10.97;4.97;;;17.90;99.90;;;;;;20964678;28;20045;-75
2022/08/31 20:58:36;;;;;;;11.10;5.07;;;17.50;99.90;;;;;;21009747;28;20052;-77
2022/08/31 21:08:44;;;;;;;7.13;4.33;;;17.20;99.90;;;;;;20948515;28;20570;-77
2022/08/31 21:18:48;;;;;;;8.45;4.90;;;17.00;99.90;;;;;;20951607;28;20040;-76
2022/08/31 21:28:51;;;;;;;7.63;5.47;;;17.00;99.90;;;;;;20974697;28;20037;-76
2022/08/31 21:38:54;;;;;;;11.75;5.90;;;16.90;99.90;;;;;;20969794;28;20048;-76
2022/08/31 21:48:57;;;;;;;9.95;5.80;;;16.60;99.90;;;;;;20953417;28;20065;-76
2022/08/31 21:58:59;;;;;;;9.18;6.43;;;16.40;99.90;;;;;;20948045;28;20296;-76
2022/08/31 22:09:05;;;;;;;10.10;6.43;;;16.40;99.90;;;;;;20908944;28;20043;-76
2022/08/31 22:19:12;;;;;;;11.73;6.78;;;16.30;99.90;;;;;;20939971;28;20033;-77
2022/08/31 22:29:20;;;;;;;11.52;6.75;;;16.20;99.90;;;;;;20954490;28;20048;-76
2022/08/31 22:39:25;;;;;;;12.52;7.05;;;16.20;99.90;;;;;;20943931;28;20052;-77
2022/08/31 22:49:26;;;;;;;9.52;6.82;;;16.00;99.90;;;;;;20951679;28;20037;-77
2022/08/31 22:59:26;;;;;;;13.03;6.87;;;15.80;99.90;;;;;;20950878;28;20035;-78
2022/08/31 23:09:29;;;;;;;8.97;6.77;;;15.60;99.90;;;;;;20955508;28;20043;-77
2022/08/31 23:19:37;;;;;;;13.63;7.30;;;15.70;99.90;;;;;;20954410;28;20046;-78
2022/08/31 23:29:47;;;;;;;14.18;7.03;;;15.80;99.90;;;;;;20925241;28;20072;-76
2022/08/31 23:39:49;;;;;;;12.85;7.80;;;15.80;99.90;;;;;;20940165;28;20052;-77
2022/08/31 23:49:51;;;;;;;10.13;7.22;;;15.60;99.90;;;;;;20933778;28;20040;-78
2022/08/31 23:59:53;;;;;;;13.93;8.05;;;15.50;99.90;;;;;;20932473;28;20407;-77
